createdAt,value
2023-03-17T00:01:54.353Z,2.64
2023-03-17T00:04:25.557Z,2.54
2023-03-17T00:06:53.137Z,2.53
2023-03-17T00:09:20.893Z,2.54
2023-03-17T00:11:48.365Z,2.39
2023-03-17T00:14:16.749Z,2.45
2023-03-17T00:16:45.322Z,2.46
2023-03-17T00:19:17.321Z,2.48
2023-03-17T00:21:46.157Z,2.54
2023-03-17T00:24:15.077Z,2.79
2023-03-17T00:26:43.413Z,2.91
2023-03-17T00:29:10.853Z,2.86
2023-03-17T00:31:39.293Z,2.64
2023-03-17T00:34:08.128Z,2.52
2023-03-17T00:36:35.811Z,2.49
2023-03-17T00:39:04.202Z,2.49
2023-03-17T00:41:31.531Z,2.59
2023-03-17T00:43:59.745Z,2.59
2023-03-17T00:46:36.012Z,2.46
2023-03-17T00:49:10.755Z,2.33
2023-03-17T00:51:40.751Z,2.29
2023-03-17T00:54:10.537Z,2.28
2023-03-17T00:56:39.176Z,2.25
2023-03-17T00:59:21.763Z,2.17
2023-03-17T01:01:49.289Z,2.29
2023-03-17T01:04:16.605Z,2.39
2023-03-17T01:06:44.067Z,2.50
2023-03-17T01:09:16.250Z,2.43
2023-03-17T01:11:44.330Z,2.24
2023-03-17T01:14:11.995Z,2.09
2023-03-17T01:16:39.802Z,2.09
2023-03-17T01:19:07.182Z,2.08
2023-03-17T01:21:34.776Z,2.05
2023-03-17T01:24:02.872Z,2.18
2023-03-17T01:26:30.245Z,2.28
2023-03-17T01:28:57.580Z,2.30
2023-03-17T01:31:26.327Z,2.17
2023-03-17T01:33:54.100Z,2.22
2023-03-17T01:36:22.833Z,2.22
2023-03-17T01:38:51.048Z,2.33
2023-03-17T01:41:19.159Z,2.50
2023-03-17T01:43:46.426Z,2.46
2023-03-17T01:46:25.545Z,2.02
2023-03-17T01:49:12.763Z,1.88
2023-03-17T01:51:49.096Z,1.59
2023-03-17T01:54:34.829Z,1.87
2023-03-17T01:57:23.410Z,1.93
2023-03-17T02:00:05.282Z,1.64
2023-03-17T02:02:45.073Z,1.53
2023-03-17T02:05:13.717Z,1.70
2023-03-17T02:07:41.628Z,1.68
2023-03-17T02:10:09.935Z,1.61
2023-03-17T02:12:38.510Z,1.53
2023-03-17T02:15:06.310Z,1.38
2023-03-17T02:17:33.997Z,1.50
2023-03-17T02:20:32.800Z,1.42
2023-03-17T02:23:00.237Z,1.29
2023-03-17T02:25:28.676Z,0.88
2023-03-17T02:27:57.902Z,0.67
2023-03-17T02:30:25.356Z,0.68
2023-03-17T02:32:52.774Z,0.65
2023-03-17T02:35:22.472Z,0.70
2023-03-17T02:37:49.873Z,0.67
2023-03-17T02:40:17.621Z,0.56
2023-03-17T02:42:45.019Z,0.37
2023-03-17T02:45:13.220Z,0.09
2023-03-17T02:47:41.547Z,0.09
2023-03-17T02:50:09.737Z,0.26
2023-03-17T02:52:37.454Z,0.47
2023-03-17T02:55:05.746Z,0.51
2023-03-17T02:57:33.168Z,0.68
2023-03-17T03:00:00.470Z,0.61
2023-03-17T03:02:27.894Z,0.62
2023-03-17T03:04:56.484Z,0.74
2023-03-17T03:07:23.842Z,0.57
2023-03-17T03:09:51.102Z,0.68
2023-03-17T03:12:18.412Z,0.68
2023-03-17T03:14:46.121Z,0.46
2023-03-17T03:17:13.532Z,0.40
2023-03-17T03:19:40.829Z,0.58
2023-03-17T03:22:08.469Z,0.64
2023-03-17T03:24:35.837Z,0.33
2023-03-17T03:27:03.211Z,0.39
2023-03-17T03:29:30.762Z,0.53
2023-03-17T03:31:58.069Z,0.54
2023-03-17T03:34:25.376Z,0.49
2023-03-17T03:36:52.778Z,0.56
2023-03-17T03:39:20.036Z,0.49
2023-03-17T03:41:47.447Z,0.34
2023-03-17T03:44:14.763Z,0.36
2023-03-17T03:46:42.065Z,0.33
2023-03-17T03:49:09.337Z,0.34
2023-03-17T03:51:36.869Z,0.30
2023-03-17T03:54:04.148Z,0.41
2023-03-17T03:56:31.476Z,0.41
2023-03-17T03:58:58.774Z,0.27
2023-03-17T04:01:26.187Z,0.41
2023-03-17T04:03:53.459Z,0.20
2023-03-17T04:06:20.811Z,0.27
2023-03-17T04:08:48.081Z,0.37
2023-03-17T04:11:15.503Z,0.22
2023-03-17T04:13:42.841Z,0.14
2023-03-17T04:16:10.231Z,0.07
2023-03-17T04:18:37.531Z,-0.01
2023-03-17T04:21:05.410Z,0.09
2023-03-17T04:23:32.673Z,0.07
2023-03-17T04:26:00.072Z,0.32
2023-03-17T04:28:27.431Z,0.10
2023-03-17T04:30:54.817Z,-0.22
2023-03-17T04:33:22.537Z,-0.46
2023-03-17T04:35:49.985Z,-0.40
2023-03-17T04:38:17.495Z,-0.42
2023-03-17T04:40:44.865Z,-0.60
2023-03-17T04:43:12.278Z,-0.63
2023-03-17T04:45:39.655Z,-0.69
2023-03-17T04:48:07.116Z,-0.72
2023-03-17T04:50:34.594Z,-0.79
2023-03-17T04:53:02.147Z,-0.88
2023-03-17T04:55:29.522Z,-0.98
2023-03-17T04:57:56.882Z,-1.34
2023-03-17T05:00:24.588Z,-1.21
2023-03-17T05:02:51.856Z,-1.39
2023-03-17T05:05:19.170Z,-1.34
2023-03-17T05:07:46.826Z,-1.21
2023-03-17T05:10:15.132Z,-1.41
2023-03-17T05:12:42.490Z,-1.45
2023-03-17T05:15:10.177Z,-1.35
2023-03-17T05:17:37.486Z,-1.32
2023-03-17T05:20:05.854Z,-1.25
2023-03-17T05:22:33.114Z,-1.05
2023-03-17T05:25:00.720Z,-0.74
2023-03-17T05:27:28.216Z,-0.55
2023-03-17T05:29:55.740Z,-0.56
2023-03-17T05:32:23.257Z,-0.77
2023-03-17T05:34:50.687Z,-0.63
2023-03-17T05:37:18.212Z,-0.63
2023-03-17T05:39:46.011Z,-0.56
2023-03-17T05:42:13.977Z,-0.36
2023-03-17T05:44:41.354Z,-0.15
2023-03-17T05:47:08.790Z,-0.01
2023-03-17T05:49:36.245Z,0.05
2023-03-17T05:52:03.551Z,0.01
2023-03-17T05:54:30.902Z,0.06
2023-03-17T05:56:58.589Z,0.29
2023-03-17T05:59:25.969Z,0.33
2023-03-17T06:01:53.525Z,0.47
2023-03-17T06:04:21.190Z,0.62
2023-03-17T06:06:48.764Z,0.70
2023-03-17T06:09:16.101Z,0.81
2023-03-17T06:11:44.206Z,1.02
2023-03-17T06:14:11.572Z,1.30
2023-03-17T06:16:38.889Z,1.40
2023-03-17T06:19:06.403Z,1.60
2023-03-17T06:21:33.909Z,1.59
2023-03-17T06:24:01.982Z,1.75
2023-03-17T06:26:29.424Z,1.68
2023-03-17T06:28:57.698Z,1.93
2023-03-17T06:31:25.069Z,2.00
2023-03-17T06:33:52.763Z,2.09
2023-03-17T06:36:20.146Z,2.35
2023-03-17T06:38:47.687Z,2.42
2023-03-17T06:41:15.353Z,2.46
2023-03-17T06:43:42.988Z,2.86
2023-03-17T06:46:10.896Z,3.49
2023-03-17T06:48:38.660Z,3.98
2023-03-17T06:51:09.093Z,4.52
2023-03-17T06:53:37.496Z,5.09
2023-03-17T06:56:20.035Z,5.68
2023-03-17T06:58:55.217Z,6.47
2023-03-17T07:01:24.121Z,7.53
2023-03-17T07:04:01.538Z,8.52
2023-03-17T07:06:29.661Z,8.52
2023-03-17T07:08:58.080Z,8.18
2023-03-17T07:11:26.591Z,8.21
2023-03-17T07:13:57.026Z,8.29
2023-03-17T07:16:24.760Z,8.35
2023-03-17T07:18:52.622Z,8.96
2023-03-17T07:21:23.809Z,8.64
2023-03-17T07:23:57.117Z,9.04
2023-03-17T07:26:33.736Z,9.21
2023-03-17T07:29:11.301Z,9.21
2023-03-17T07:31:38.811Z,9.46
2023-03-17T07:34:06.831Z,9.07
2023-03-17T07:36:34.532Z,9.08
2023-03-17T07:39:02.002Z,9.34
2023-03-17T07:41:44.556Z,9.35
2023-03-17T07:44:14.999Z,9.58
2023-03-17T07:46:42.721Z,8.93
2023-03-17T07:49:11.017Z,8.76
2023-03-17T07:51:38.874Z,9.04
2023-03-17T07:54:06.563Z,9.36
2023-03-17T07:56:35.077Z,9.90
2023-03-17T07:59:07.855Z,9.43
2023-03-17T08:01:35.872Z,10.31
2023-03-17T08:04:04.920Z,9.80
2023-03-17T08:06:32.947Z,9.49
2023-03-17T08:09:00.455Z,9.52
2023-03-17T08:11:29.465Z,9.17
2023-03-17T08:13:57.091Z,9.51
2023-03-17T08:16:24.740Z,9.55
2023-03-17T08:18:52.250Z,9.62
2023-03-17T08:21:19.764Z,9.99
2023-03-17T08:23:47.438Z,9.85
2023-03-17T08:26:15.043Z,9.90
2023-03-17T08:28:43.120Z,9.80
2023-03-17T08:31:13.800Z,10.24
2023-03-17T08:33:42.595Z,10.52
2023-03-17T08:36:10.382Z,10.34
2023-03-17T08:38:38.147Z,9.10
2023-03-17T08:41:08.423Z,8.50
2023-03-17T08:43:36.181Z,8.21
2023-03-17T08:46:08.951Z,8.14
2023-03-17T08:48:36.878Z,8.24
2023-03-17T08:51:06.107Z,8.52
2023-03-17T08:53:35.201Z,8.94
2023-03-17T08:56:03.110Z,8.74
2023-03-17T08:58:30.959Z,9.11
2023-03-17T09:01:00.830Z,8.97
2023-03-17T09:03:28.361Z,9.21
2023-03-17T09:05:55.657Z,9.31
2023-03-17T09:08:30.899Z,9.62
2023-03-17T09:10:59.523Z,9.18
2023-03-17T09:13:28.069Z,8.99
2023-03-17T09:15:56.315Z,9.34
2023-03-17T09:18:24.118Z,9.34
2023-03-17T09:20:56.213Z,9.41
2023-03-17T09:23:24.246Z,9.70
2023-03-17T09:25:52.250Z,10.10
2023-03-17T09:28:23.365Z,9.80
2023-03-17T09:30:52.469Z,9.87
2023-03-17T09:33:27.964Z,10.03
2023-03-17T09:35:58.938Z,10.22
2023-03-17T09:38:28.014Z,10.58
2023-03-17T09:41:29.500Z,10.58
2023-03-17T09:44:16.538Z,10.67
2023-03-17T09:46:47.228Z,10.52
2023-03-17T09:49:25.768Z,10.61
2023-03-17T09:51:53.394Z,10.91
2023-03-17T09:54:31.729Z,10.71
2023-03-17T09:57:08.826Z,10.83
2023-03-17T09:59:39.263Z,11.15
2023-03-17T10:02:33.860Z,11.56
2023-03-17T10:05:32.033Z,11.24
2023-03-17T10:08:31.532Z,10.98
2023-03-17T10:11:14.130Z,11.02
2023-03-17T10:13:48.750Z,10.82
2023-03-17T10:16:21.041Z,10.61
2023-03-17T10:19:02.846Z,10.54
2023-03-17T10:21:32.502Z,10.82
2023-03-17T10:24:00.463Z,10.75
2023-03-17T10:26:43.086Z,10.95
2023-03-17T10:29:19.577Z,11.09
2023-03-17T10:31:47.832Z,10.82
2023-03-17T10:34:17.404Z,11.07
2023-03-17T10:36:47.514Z,10.93
2023-03-17T10:39:19.103Z,11.15
2023-03-17T10:41:52.963Z,10.95
2023-03-17T10:44:49.888Z,10.86
2023-03-17T10:47:22.831Z,10.75
2023-03-17T10:49:52.425Z,10.93
2023-03-17T10:52:23.780Z,11.54
2023-03-17T10:54:51.497Z,11.63
2023-03-17T10:57:19.053Z,11.65
2023-03-17T10:59:54.144Z,11.87
2023-03-17T11:02:35.818Z,11.94
2023-03-17T11:05:09.627Z,11.84
2023-03-17T11:07:41.834Z,11.81
2023-03-17T11:10:22.205Z,11.63
2023-03-17T11:12:59.353Z,11.88
2023-03-17T11:15:32.364Z,11.37
2023-03-17T11:18:02.821Z,11.07
2023-03-17T11:20:48.653Z,11.12
2023-03-17T11:23:19.477Z,11.19
2023-03-17T11:25:47.683Z,11.05
2023-03-17T11:28:28.008Z,10.88
2023-03-17T11:31:13.239Z,11.20
2023-03-17T11:34:05.605Z,11.26
2023-03-17T11:36:41.289Z,11.36
2023-03-17T11:39:23.457Z,11.63
2023-03-17T11:42:00.384Z,11.38
2023-03-17T11:44:38.751Z,11.85
2023-03-17T11:47:34.603Z,11.98
2023-03-17T11:50:20.965Z,11.92
2023-03-17T11:53:03.811Z,12.09
2023-03-17T11:55:45.513Z,12.16
2023-03-17T11:58:31.151Z,12.19
2023-03-17T12:01:02.424Z,11.77
2023-03-17T12:03:48.107Z,12.21
2023-03-17T12:06:33.845Z,11.99
2023-03-17T12:09:21.066Z,11.73
2023-03-17T12:11:56.253Z,11.88
2023-03-17T12:14:33.052Z,11.87
2023-03-17T12:17:46.817Z,11.95
2023-03-17T12:20:27.326Z,12.05
2023-03-17T12:23:05.798Z,12.24
2023-03-17T12:25:45.956Z,12.12
2023-03-17T12:28:22.666Z,12.40
2023-03-17T12:30:50.860Z,12.77
2023-03-17T12:33:25.321Z,12.56
2023-03-17T12:35:55.182Z,12.35
2023-03-17T12:38:30.628Z,12.29
2023-03-17T12:41:22.109Z,12.37
2023-03-17T12:44:02.294Z,12.37
2023-03-17T12:46:36.627Z,12.76
2023-03-17T12:49:26.082Z,12.93
2023-03-17T12:52:13.881Z,13.00
2023-03-17T12:54:45.366Z,13.00
2023-03-17T12:57:20.454Z,13.07
2023-03-17T12:59:49.872Z,12.77
2023-03-17T13:02:38.749Z,12.72
2023-03-17T13:05:09.388Z,12.85
2023-03-17T13:07:54.105Z,13.05
2023-03-17T13:10:48.879Z,13.43
2023-03-17T13:13:36.347Z,13.12
2023-03-17T13:16:06.081Z,13.05
2023-03-17T13:18:36.826Z,12.57
2023-03-17T13:21:04.312Z,12.30
2023-03-17T13:23:40.131Z,12.42
2023-03-17T13:26:08.092Z,12.79
2023-03-17T13:28:35.483Z,12.80
2023-03-17T13:31:10.397Z,12.68
2023-03-17T13:33:46.144Z,12.53
2023-03-17T13:36:27.667Z,12.57
2023-03-17T13:39:19.795Z,12.15
2023-03-17T13:42:23.352Z,12.39
2023-03-17T13:45:13.306Z,12.47
2023-03-17T13:47:42.519Z,12.43
2023-03-17T13:50:14.792Z,12.45
2023-03-17T13:52:53.742Z,12.56
2023-03-17T13:55:24.387Z,12.77
2023-03-17T13:57:57.404Z,12.74
2023-03-17T14:00:28.390Z,12.63
2023-03-17T14:03:18.183Z,12.56
2023-03-17T14:05:50.423Z,12.64
2023-03-17T14:08:27.905Z,13.03
2023-03-17T14:11:00.778Z,12.83
2023-03-17T14:13:28.832Z,12.56
2023-03-17T14:16:11.943Z,12.60
2023-03-17T14:18:40.544Z,12.33
2023-03-17T14:21:18.947Z,12.32
2023-03-17T14:24:00.147Z,12.39
2023-03-17T14:26:29.336Z,12.49
2023-03-17T14:28:59.621Z,12.60
2023-03-17T14:31:28.306Z,12.43
2023-03-17T14:33:59.165Z,12.35
2023-03-17T14:36:27.822Z,12.19
2023-03-17T14:38:56.513Z,12.46
2023-03-17T14:41:27.698Z,12.24
2023-03-17T14:44:01.698Z,12.45
2023-03-17T14:46:35.065Z,12.46
2023-03-17T14:49:19.963Z,12.59
2023-03-17T14:51:53.568Z,12.56
2023-03-17T14:54:24.329Z,12.50
2023-03-17T14:57:02.543Z,12.63
2023-03-17T14:59:40.686Z,12.42
2023-03-17T15:02:31.853Z,12.42
2023-03-17T15:04:59.822Z,12.39
2023-03-17T15:07:41.343Z,12.18
2023-03-17T15:10:18.962Z,12.25
2023-03-17T15:12:49.103Z,12.16
2023-03-17T15:15:22.341Z,12.16
2023-03-17T15:17:54.726Z,11.99
2023-03-17T15:20:22.803Z,11.98
2023-03-17T15:22:59.989Z,11.94
2023-03-17T15:25:34.286Z,11.88
2023-03-17T15:28:01.820Z,11.82
2023-03-17T15:30:37.408Z,11.92
2023-03-17T15:33:28.497Z,11.74
2023-03-17T15:36:00.395Z,11.77
2023-03-17T15:38:28.372Z,11.68
2023-03-17T15:40:55.724Z,11.58
2023-03-17T15:43:23.236Z,11.41
2023-03-17T15:45:55.505Z,11.43
2023-03-17T15:48:25.506Z,11.56
2023-03-17T15:50:53.746Z,11.40
2023-03-17T15:53:21.368Z,11.37
2023-03-17T15:55:48.822Z,11.31
2023-03-17T15:58:16.476Z,11.17
2023-03-17T16:00:44.004Z,11.13
2023-03-17T16:03:31.565Z,11.15
2023-03-17T16:06:00.260Z,11.13
2023-03-17T16:08:27.602Z,11.07
2023-03-17T16:10:55.000Z,11.02
2023-03-17T16:13:22.554Z,10.88
2023-03-17T16:16:00.400Z,10.99
2023-03-17T16:18:36.319Z,10.88
2023-03-17T16:21:04.431Z,10.85
2023-03-17T16:23:32.480Z,10.80
2023-03-17T16:26:13.793Z,10.75
2023-03-17T16:28:42.137Z,10.71
2023-03-17T16:31:20.001Z,10.61
2023-03-17T16:33:47.419Z,10.54
2023-03-17T16:36:19.042Z,10.47
2023-03-17T16:38:46.845Z,10.47
2023-03-17T16:41:25.349Z,10.48
2023-03-17T16:43:55.365Z,10.45
2023-03-17T16:46:22.797Z,10.41
2023-03-17T16:48:50.367Z,10.34
2023-03-17T16:51:17.966Z,10.22
2023-03-17T16:53:45.918Z,10.09
2023-03-17T16:56:18.381Z,10.09
2023-03-17T16:58:46.137Z,10.09
2023-03-17T17:01:19.327Z,9.94
2023-03-17T17:03:47.080Z,9.90
2023-03-17T17:06:14.570Z,10.01
2023-03-17T17:08:43.135Z,9.82
2023-03-17T17:11:13.179Z,9.82
2023-03-17T17:13:44.803Z,9.78
2023-03-17T17:16:28.041Z,9.73
2023-03-17T17:18:55.812Z,9.61
2023-03-17T17:21:23.552Z,9.51
2023-03-17T17:23:52.909Z,9.46
2023-03-17T17:26:21.503Z,9.42
2023-03-17T17:28:49.205Z,9.32
2023-03-17T17:31:16.794Z,9.30
2023-03-17T17:33:44.145Z,9.21
2023-03-17T17:36:15.992Z,9.21
2023-03-17T17:38:43.836Z,9.15
2023-03-17T17:41:11.854Z,8.97
2023-03-17T17:43:39.411Z,8.96
2023-03-17T17:46:11.686Z,8.76
2023-03-17T17:48:39.089Z,8.74
2023-03-17T17:51:06.439Z,8.64
2023-03-17T17:53:33.946Z,8.57
2023-03-17T17:56:01.462Z,8.43
2023-03-17T17:58:29.061Z,8.42
2023-03-17T18:00:57.848Z,8.33
2023-03-17T18:03:25.636Z,8.33
2023-03-17T18:05:54.232Z,8.32
2023-03-17T18:08:21.927Z,8.39
2023-03-17T18:10:51.858Z,8.18
2023-03-17T18:13:19.783Z,8.16
2023-03-17T18:15:47.493Z,8.18
2023-03-17T18:18:14.984Z,8.09
2023-03-17T18:20:42.363Z,7.97
2023-03-17T18:23:09.717Z,7.85
2023-03-17T18:25:37.428Z,7.81
2023-03-17T18:28:04.955Z,7.85
2023-03-17T18:30:34.944Z,7.70
2023-03-17T18:33:06.587Z,7.69
2023-03-17T18:35:33.979Z,7.66
2023-03-17T18:38:01.632Z,7.66
2023-03-17T18:40:29.096Z,7.70
2023-03-17T18:42:56.409Z,7.62
2023-03-17T18:45:23.944Z,7.46
2023-03-17T18:47:51.251Z,7.44
2023-03-17T18:50:19.715Z,7.47
2023-03-17T18:52:47.128Z,7.50
2023-03-17T18:55:14.873Z,7.50
2023-03-17T18:57:44.468Z,7.32
2023-03-17T19:00:13.036Z,7.23
2023-03-17T19:02:40.400Z,7.27
2023-03-17T19:05:08.072Z,7.13
2023-03-17T19:07:36.024Z,7.22
2023-03-17T19:10:04.742Z,7.18
2023-03-17T19:12:32.016Z,7.15
2023-03-17T19:15:00.173Z,7.02
2023-03-17T19:17:28.394Z,7.20
2023-03-17T19:19:56.013Z,7.22
2023-03-17T19:22:23.903Z,7.15
2023-03-17T19:24:51.317Z,6.94
2023-03-17T19:27:18.630Z,7.02
2023-03-17T19:29:46.122Z,6.99
2023-03-17T19:32:13.498Z,7.02
2023-03-17T19:34:40.866Z,6.71
2023-03-17T19:37:08.423Z,6.68
2023-03-17T19:39:36.844Z,6.58
2023-03-17T19:42:04.276Z,6.70
2023-03-17T19:44:31.745Z,6.61
2023-03-17T19:47:01.713Z,6.61
2023-03-17T19:49:29.175Z,6.54
2023-03-17T19:51:56.593Z,6.46
2023-03-17T19:54:23.965Z,6.30
2023-03-17T19:56:51.982Z,6.47
2023-03-17T19:59:19.959Z,6.33
2023-03-17T20:01:48.803Z,6.33
2023-03-17T20:04:21.892Z,6.20
2023-03-17T20:06:52.275Z,6.22
2023-03-17T20:09:19.706Z,6.33
2023-03-17T20:11:47.023Z,6.23
2023-03-17T20:14:14.379Z,6.15
2023-03-17T20:16:42.493Z,6.13
2023-03-17T20:19:09.865Z,6.12
2023-03-17T20:21:37.806Z,6.02
2023-03-17T20:24:05.690Z,6.03
2023-03-17T20:26:34.233Z,5.96
2023-03-17T20:29:02.170Z,5.79
2023-03-17T20:31:29.756Z,5.82
2023-03-17T20:33:57.142Z,5.86
2023-03-17T20:36:24.548Z,5.76
2023-03-17T20:38:51.881Z,5.66
2023-03-17T20:41:19.234Z,5.47
2023-03-17T20:43:46.956Z,5.45
2023-03-17T20:46:19.250Z,5.57
2023-03-17T20:48:48.354Z,5.61
2023-03-17T20:51:16.770Z,5.59
2023-03-17T20:53:44.860Z,5.62
2023-03-17T20:56:16.489Z,5.57
2023-03-17T20:58:45.480Z,5.47
2023-03-17T21:01:13.627Z,5.54
2023-03-17T21:03:42.430Z,5.64
2023-03-17T21:06:09.940Z,5.58
2023-03-17T21:08:37.857Z,5.54
2023-03-17T21:11:05.960Z,5.64
2023-03-17T21:13:33.234Z,5.38
2023-03-17T21:16:01.576Z,5.37
2023-03-17T21:18:29.787Z,5.51
2023-03-17T21:20:57.035Z,5.52
2023-03-17T21:23:25.582Z,5.43
2023-03-17T21:25:56.136Z,5.37
2023-03-17T21:28:23.561Z,5.33
2023-03-17T21:30:50.949Z,5.34
2023-03-17T21:33:18.266Z,5.23
2023-03-17T21:35:45.620Z,5.24
2023-03-17T21:38:12.946Z,5.27
2023-03-17T21:40:40.646Z,5.36
2023-03-17T21:43:08.056Z,5.31
2023-03-17T21:45:35.714Z,5.27
2023-03-17T21:48:03.246Z,5.16
2023-03-17T21:50:31.796Z,5.24
2023-03-17T21:52:59.347Z,5.19
2023-03-17T21:55:27.305Z,5.24
2023-03-17T21:57:55.776Z,5.13
2023-03-17T22:00:23.615Z,5.23
2023-03-17T22:02:52.864Z,5.17
2023-03-17T22:05:20.597Z,5.23
2023-03-17T22:07:48.462Z,5.13
2023-03-17T22:10:15.823Z,5.16
2023-03-17T22:12:43.233Z,5.16
2023-03-17T22:15:10.942Z,5.05
2023-03-17T22:17:39.780Z,5.07
2023-03-17T22:20:08.042Z,5.09
2023-03-17T22:22:36.078Z,5.03
2023-03-17T22:25:06.306Z,5.01
2023-03-17T22:27:33.752Z,5.10
2023-03-17T22:30:01.065Z,4.96
2023-03-17T22:32:28.518Z,4.95
2023-03-17T22:34:55.893Z,4.97
2023-03-17T22:37:23.275Z,4.86
2023-03-17T22:39:50.733Z,5.06
2023-03-17T22:42:18.068Z,5.05
2023-03-17T22:44:45.489Z,4.99
2023-03-17T22:47:12.842Z,4.95
2023-03-17T22:49:40.091Z,4.99
2023-03-17T22:52:07.547Z,5.06
2023-03-17T22:54:34.828Z,5.01
2023-03-17T22:57:03.920Z,4.92
2023-03-17T22:59:32.551Z,4.89
2023-03-17T23:01:59.840Z,4.80
2023-03-17T23:04:27.278Z,4.90
2023-03-17T23:06:54.602Z,4.90
2023-03-17T23:09:22.103Z,4.93
2023-03-17T23:11:49.382Z,4.85
2023-03-17T23:14:16.778Z,5.00
2023-03-17T23:16:45.168Z,4.89
2023-03-17T23:19:12.585Z,4.99
2023-03-17T23:21:40.073Z,4.86
2023-03-17T23:24:07.944Z,4.92
2023-03-17T23:26:37.097Z,4.80
2023-03-17T23:29:05.350Z,4.82
2023-03-17T23:31:34.160Z,4.95
2023-03-17T23:34:01.459Z,4.86
2023-03-17T23:36:28.713Z,4.69
2023-03-17T23:38:56.072Z,4.69
2023-03-17T23:41:23.312Z,4.58
2023-03-17T23:43:51.158Z,4.66
2023-03-17T23:46:18.838Z,4.54
2023-03-17T23:48:46.261Z,4.56
2023-03-17T23:51:14.470Z,4.64
2023-03-17T23:53:41.972Z,4.72
2023-03-17T23:56:09.580Z,4.73
2023-03-17T23:58:37.485Z,4.75
